sensor_id;sensor_type;location;lat;lon;timestamp;pressure;altitude;pressure_sealevel;temperature;humidity
3844;BME280;1937;51.444;6.484;2022-08-21T00:00:34;69904.16;;;16.57;94.16
3844;BME280;1937;51.444;6.484;2022-08-21T00:03:05;69838.81;;;16.34;94.12
3844;BME280;1937;51.444;6.484;2022-08-21T00:05:35;69837.22;;;16.24;94.93
3844;BME280;1937;51.444;6.484;2022-08-21T00:08:05;69895.59;;;16.38;93.94
3844;BME280;1937;51.444;6.484;2022-08-21T00:10:34;69893.19;;;16.43;93.86
3844;BME280;1937;51.444;6.484;2022-08-21T00:13:05;69884.41;;;16.33;94.04
3844;BME280;1937;51.444;6.484;2022-08-21T00:15:36;69874.00;;;16.20;95.08
3844;BME280;1937;51.444;6.484;2022-08-21T00:18:07;69882.44;;;16.01;96.11
3844;BME280;1937;51.444;6.484;2022-08-21T00:20:37;69984.94;;;16.09;96.34
3844;BME280;1937;51.444;6.484;2022-08-21T00:23:06;70050.72;;;16.07;96.62
3844;BME280;1937;51.444;6.484;2022-08-21T00:25:35;70004.50;;;15.88;97.26
3844;BME280;1937;51.444;6.484;2022-08-21T00:28:06;70079.66;;;15.90;97.36
3844;BME280;1937;51.444;6.484;2022-08-21T00:30:36;70119.19;;;15.77;97.97
3844;BME280;1937;51.444;6.484;2022-08-21T00:33:06;70169.31;;;15.76;98.98
3844;BME280;1937;51.444;6.484;2022-08-21T00:35:38;70230.66;;;15.79;98.98
3844;BME280;1937;51.444;6.484;2022-08-21T00:38:08;70348.09;;;15.95;98.02
3844;BME280;1937;51.444;6.484;2022-08-21T00:40:46;70266.75;;;15.96;97.73
3844;BME280;1937;51.444;6.484;2022-08-21T00:43:18;70298.69;;;15.88;98.10
3844;BME280;1937;51.444;6.484;2022-08-21T00:45:47;70277.13;;;15.90;97.67
3844;BME280;1937;51.444;6.484;2022-08-21T00:48:16;70253.88;;;15.81;97.42
3844;BME280;1937;51.444;6.484;2022-08-21T00:50:50;70150.63;;;15.53;98.13
3844;BME280;1937;51.444;6.484;2022-08-21T00:53:20;70240.72;;;15.55;98.67
3844;BME280;1937;51.444;6.484;2022-08-21T00:55:50;70268.47;;;15.56;98.27
3844;BME280;1937;51.444;6.484;2022-08-21T00:58:20;70333.84;;;15.59;98.56
3844;BME280;1937;51.444;6.484;2022-08-21T01:00:50;70330.84;;;15.63;98.22
3844;BME280;1937;51.444;6.484;2022-08-21T01:03:22;70323.44;;;15.59;98.28
3844;BME280;1937;51.444;6.484;2022-08-21T01:05:51;70273.38;;;15.45;98.27
3844;BME280;1937;51.444;6.484;2022-08-21T01:08:20;70316.06;;;15.40;98.87
3844;BME280;1937;51.444;6.484;2022-08-21T01:10:50;70346.66;;;15.46;99.18
3844;BME280;1937;51.444;6.484;2022-08-21T01:13:23;70385.38;;;15.41;99.23
3844;BME280;1937;51.444;6.484;2022-08-21T01:15:54;70401.19;;;15.46;99.90
3844;BME280;1937;51.444;6.484;2022-08-21T01:18:24;70454.75;;;15.49;99.80
3844;BME280;1937;51.444;6.484;2022-08-21T01:21:08;70468.34;;;15.50;99.48
3844;BME280;1937;51.444;6.484;2022-08-21T01:23:38;70508.69;;;15.64;98.66
3844;BME280;1937;51.444;6.484;2022-08-21T01:26:09;70472.50;;;15.62;98.10
3844;BME280;1937;51.444;6.484;2022-08-21T01:28:41;70355.13;;;15.31;99.38
3844;BME280;1937;51.444;6.484;2022-08-21T01:31:13;70453.78;;;15.31;100.00
3844;BME280;1937;51.444;6.484;2022-08-21T01:33:43;70533.13;;;15.37;100.00
3844;BME280;1937;51.444;6.484;2022-08-21T01:36:13;70563.91;;;15.41;99.97
3844;BME280;1937;51.444;6.484;2022-08-21T01:38:41;70515.19;;;15.26;100.00
3844;BME280;1937;51.444;6.484;2022-08-21T01:41:10;70593.16;;;15.18;100.00
3844;BME280;1937;51.444;6.484;2022-08-21T01:43:38;70594.03;;;15.23;100.00
3844;BME280;1937;51.444;6.484;2022-08-21T01:46:07;70652.94;;;15.24;100.00
3844;BME280;1937;51.444;6.484;2022-08-21T01:48:36;70625.16;;;15.23;100.00
3844;BME280;1937;51.444;6.484;2022-08-21T01:51:06;70640.91;;;15.21;100.00
3844;BME280;1937;51.444;6.484;2022-08-21T01:53:36;70611.59;;;15.22;100.00
3844;BME280;1937;51.444;6.484;2022-08-21T01:56:08;70557.00;;;15.00;100.00
3844;BME280;1937;51.444;6.484;2022-08-21T01:58:38;70562.00;;;15.02;100.00
3844;BME280;1937;51.444;6.484;2022-08-21T02:01:07;70665.72;;;15.11;100.00
3844;BME280;1937;51.444;6.484;2022-08-21T02:03:36;70607.59;;;15.08;100.00
3844;BME280;1937;51.444;6.484;2022-08-21T02:06:06;70690.56;;;15.16;100.00
3844;BME280;1937;51.444;6.484;2022-08-21T02:08:36;70721.09;;;15.16;100.00
3844;BME280;1937;51.444;6.484;2022-08-21T02:11:04;70637.03;;;15.13;100.00
3844;BME280;1937;51.444;6.484;2022-08-21T02:13:33;70636.94;;;15.06;100.00
3844;BME280;1937;51.444;6.484;2022-08-21T02:16:02;70612.59;;;14.95;100.00
3844;BME280;1937;51.444;6.484;2022-08-21T02:18:31;70633.97;;;14.95;100.00
3844;BME280;1937;51.444;6.484;2022-08-21T02:20:59;70692.09;;;14.98;100.00
3844;BME280;1937;51.444;6.484;2022-08-21T02:23:27;70640.03;;;15.00;100.00
3844;BME280;1937;51.444;6.484;2022-08-21T02:26:00;70632.66;;;15.03;99.84
3844;BME280;1937;51.444;6.484;2022-08-21T02:28:28;70594.88;;;14.97;99.51
3844;BME280;1937;51.444;6.484;2022-08-21T02:30:58;70516.44;;;14.97;99.46
3844;BME280;1937;51.444;6.484;2022-08-21T02:33:27;70526.56;;;14.92;99.71
3844;BME280;1937;51.444;6.484;2022-08-21T02:35:57;70521.09;;;14.88;99.79
3844;BME280;1937;51.444;6.484;2022-08-21T02:38:29;70518.06;;;14.85;99.71
3844;BME280;1937;51.444;6.484;2022-08-21T02:40:59;70574.63;;;14.91;99.68
3844;BME280;1937;51.444;6.484;2022-08-21T02:43:28;70531.94;;;14.90;99.54
3844;BME280;1937;51.444;6.484;2022-08-21T02:45:57;70534.50;;;15.05;98.85
3844;BME280;1937;51.444;6.484;2022-08-21T02:48:29;70422.09;;;14.85;98.32
3844;BME280;1937;51.444;6.484;2022-08-21T02:50:59;70337.22;;;14.77;98.50
3844;BME280;1937;51.444;6.484;2022-08-21T02:53:29;70316.59;;;14.68;98.31
3844;BME280;1937;51.444;6.484;2022-08-21T02:56:00;70357.78;;;14.79;99.47
3844;BME280;1937;51.444;6.484;2022-08-21T02:58:32;70423.91;;;14.87;98.69
3844;BME280;1937;51.444;6.484;2022-08-21T03:01:02;70383.81;;;14.86;98.30
3844;BME280;1937;51.444;6.484;2022-08-21T03:03:30;70383.69;;;14.94;97.94
3844;BME280;1937;51.444;6.484;2022-08-21T03:06:02;70381.72;;;14.95;98.11
3844;BME280;1937;51.444;6.484;2022-08-21T03:08:31;70378.81;;;14.84;98.51
3844;BME280;1937;51.444;6.484;2022-08-21T03:11:01;70399.22;;;14.72;99.58
3844;BME280;1937;51.444;6.484;2022-08-21T03:13:30;70442.28;;;14.69;100.00
3844;BME280;1937;51.444;6.484;2022-08-21T03:16:00;70483.94;;;14.67;100.00
3844;BME280;1937;51.444;6.484;2022-08-21T03:18:29;70553.16;;;14.69;99.86
3844;BME280;1937;51.444;6.484;2022-08-21T03:20:57;70496.56;;;14.71;99.50
3844;BME280;1937;51.444;6.484;2022-08-21T03:23:26;70477.88;;;14.78;99.37
3844;BME280;1937;51.444;6.484;2022-08-21T03:25:54;70394.50;;;14.60;99.26
3844;BME280;1937;51.444;6.484;2022-08-21T03:28:24;70394.94;;;14.47;100.00
3844;BME280;1937;51.444;6.484;2022-08-21T03:30:53;70562.84;;;14.62;100.00
3844;BME280;1937;51.444;6.484;2022-08-21T03:33:22;70595.44;;;14.67;100.00
3844;BME280;1937;51.444;6.484;2022-08-21T03:35:55;70617.22;;;14.70;100.00
3844;BME280;1937;51.444;6.484;2022-08-21T03:38:25;70586.00;;;14.64;100.00
3844;BME280;1937;51.444;6.484;2022-08-21T03:40:55;70545.66;;;14.58;100.00
3844;BME280;1937;51.444;6.484;2022-08-21T03:43:25;70512.34;;;14.46;100.00
3844;BME280;1937;51.444;6.484;2022-08-21T03:45:55;70459.97;;;14.37;100.00
3844;BME280;1937;51.444;6.484;2022-08-21T03:48:23;70552.00;;;14.44;100.00
3844;BME280;1937;51.444;6.484;2022-08-21T03:50:53;70542.16;;;14.38;100.00
3844;BME280;1937;51.444;6.484;2022-08-21T03:53:22;70537.84;;;14.43;100.00
3844;BME280;1937;51.444;6.484;2022-08-21T03:55:52;70573.97;;;14.45;100.00
3844;BME280;1937;51.444;6.484;2022-08-21T03:58:23;70604.66;;;14.43;100.00
3844;BME280;1937;51.444;6.484;2022-08-21T04:00:56;70619.09;;;14.48;100.00
3844;BME280;1937;51.444;6.484;2022-08-21T04:03:26;70565.06;;;14.51;100.00
3844;BME280;1937;51.444;6.484;2022-08-21T04:05:55;70568.97;;;14.58;99.70
3844;BME280;1937;51.444;6.484;2022-08-21T04:08:24;70580.81;;;14.64;99.17
3844;BME280;1937;51.444;6.484;2022-08-21T04:10:54;70451.34;;;14.47;99.36
3844;BME280;1937;51.444;6.484;2022-08-21T04:13:23;70429.84;;;14.48;98.94
3844;BME280;1937;51.444;6.484;2022-08-21T04:15:56;70396.16;;;14.48;98.60
3844;BME280;1937;51.444;6.484;2022-08-21T04:18:27;70417.81;;;14.45;99.02
3844;BME280;1937;51.444;6.484;2022-08-21T04:20:57;70441.16;;;14.60;99.02
3844;BME280;1937;51.444;6.484;2022-08-21T04:23:26;70469.59;;;14.68;98.63
3844;BME280;1937;51.444;6.484;2022-08-21T04:25:55;70417.56;;;14.70;98.42
3844;BME280;1937;51.444;6.484;2022-08-21T04:28:25;70475.09;;;14.80;98.34
3844;BME280;1937;51.444;6.484;2022-08-21T04:30:56;70451.59;;;14.82;98.18
3844;BME280;1937;51.444;6.484;2022-08-21T04:33:25;70475.38;;;14.84;98.56
3844;BME280;1937;51.444;6.484;2022-08-21T04:35:55;70469.59;;;14.84;98.51
3844;BME280;1937;51.444;6.484;2022-08-21T04:38:24;70468.78;;;14.85;98.44
3844;BME280;1937;51.444;6.484;2022-08-21T04:40:54;70443.56;;;14.77;98.91
3844;BME280;1937;51.444;6.484;2022-08-21T04:43:22;70651.22;;;14.75;100.00
3844;BME280;1937;51.444;6.484;2022-08-21T04:45:52;70805.41;;;14.85;100.00
3844;BME280;1937;51.444;6.484;2022-08-21T04:48:24;71044.53;;;14.96;100.00
3844;BME280;1937;51.444;6.484;2022-08-21T04:51:07;71105.53;;;15.21;100.00
3844;BME280;1937;51.444;6.484;2022-08-21T04:53:41;71251.72;;;15.53;100.00
3844;BME280;1937;51.444;6.484;2022-08-21T04:56:14;71207.66;;;15.86;98.89
3844;BME280;1937;51.444;6.484;2022-08-21T04:58:44;71079.56;;;15.87;98.81
3844;BME280;1937;51.444;6.484;2022-08-21T05:01:15;70992.72;;;15.93;98.41
3844;BME280;1937;51.444;6.484;2022-08-21T05:03:50;70951.97;;;16.07;96.87
3844;BME280;1937;51.444;6.484;2022-08-21T05:06:19;70871.78;;;16.18;94.67
3844;BME280;1937;51.444;6.484;2022-08-21T05:08:49;70633.44;;;16.23;95.04
3844;BME280;1937;51.444;6.484;2022-08-21T05:11:19;70609.63;;;16.20;94.48
3844;BME280;1937;51.444;6.484;2022-08-21T05:13:49;70644.72;;;16.28;94.81
3844;BME280;1937;51.444;6.484;2022-08-21T05:16:18;70592.94;;;16.32;94.31
3844;BME280;1937;51.444;6.484;2022-08-21T05:18:48;70576.81;;;16.38;94.15
3844;BME280;1937;51.444;6.484;2022-08-21T05:21:17;70515.69;;;16.46;93.30
3844;BME280;1937;51.444;6.484;2022-08-21T05:23:46;70506.63;;;16.60;92.55
3844;BME280;1937;51.444;6.484;2022-08-21T05:26:14;70415.50;;;16.54;92.17
3844;BME280;1937;51.444;6.484;2022-08-21T05:28:42;70368.47;;;16.49;92.82
3844;BME280;1937;51.444;6.484;2022-08-21T05:31:12;70370.44;;;16.42;92.98
3844;BME280;1937;51.444;6.484;2022-08-21T05:33:41;70394.28;;;16.51;92.95
3844;BME280;1937;51.444;6.484;2022-08-21T05:36:11;70378.91;;;16.56;92.31
3844;BME280;1937;51.444;6.484;2022-08-21T05:38:39;70360.09;;;16.55;92.78
3844;BME280;1937;51.444;6.484;2022-08-21T05:41:07;70366.88;;;16.52;92.59
3844;BME280;1937;51.444;6.484;2022-08-21T05:43:36;70337.34;;;16.62;91.48
3844;BME280;1937;51.444;6.484;2022-08-21T05:46:04;70282.41;;;16.45;93.02
3844;BME280;1937;51.444;6.484;2022-08-21T05:48:34;70396.81;;;16.66;91.95
3844;BME280;1937;51.444;6.484;2022-08-21T05:51:06;70317.34;;;16.61;92.15
3844;BME280;1937;51.444;6.484;2022-08-21T05:53:37;70334.00;;;16.70;91.51
3844;BME280;1937;51.444;6.484;2022-08-21T05:56:06;70269.13;;;16.68;91.74
3844;BME280;1937;51.444;6.484;2022-08-21T05:58:35;70366.06;;;16.82;91.50
3844;BME280;1937;51.444;6.484;2022-08-21T06:01:05;70279.22;;;16.86;91.04
3844;BME280;1937;51.444;6.484;2022-08-21T06:03:38;70230.53;;;16.71;91.34
3844;BME280;1937;51.444;6.484;2022-08-21T06:06:07;70273.81;;;16.88;91.15
3844;BME280;1937;51.444;6.484;2022-08-21T06:08:38;70362.44;;;17.14;89.76
3844;BME280;1937;51.444;6.484;2022-08-21T06:11:08;70209.03;;;17.12;89.49
3844;BME280;1937;51.444;6.484;2022-08-21T06:13:36;70202.81;;;17.09;89.52
3844;BME280;1937;51.444;6.484;2022-08-21T06:16:10;70213.66;;;17.18;89.09
3844;BME280;1937;51.444;6.484;2022-08-21T06:18:40;70165.59;;;17.30;89.13
3844;BME280;1937;51.444;6.484;2022-08-21T06:21:09;70180.22;;;17.40;88.80
3844;BME280;1937;51.444;6.484;2022-08-21T06:23:39;70138.97;;;17.30;89.17
3844;BME280;1937;51.444;6.484;2022-08-21T06:26:10;70193.66;;;17.49;88.64
3844;BME280;1937;51.444;6.484;2022-08-21T06:28:39;70144.16;;;17.30;89.14
3844;BME280;1937;51.444;6.484;2022-08-21T06:31:10;70179.81;;;17.51;88.42
3844;BME280;1937;51.444;6.484;2022-08-21T06:33:40;70115.91;;;17.45;88.08
3844;BME280;1937;51.444;6.484;2022-08-21T06:36:09;70221.72;;;17.62;88.55
3844;BME280;1937;51.444;6.484;2022-08-21T06:38:37;70081.03;;;17.55;87.99
3844;BME280;1937;51.444;6.484;2022-08-21T06:41:07;70189.50;;;17.66;88.03
3844;BME280;1937;51.444;6.484;2022-08-21T06:43:36;70148.00;;;17.70;88.44
3844;BME280;1937;51.444;6.484;2022-08-21T06:46:05;70248.44;;;17.89;87.98
3844;BME280;1937;51.444;6.484;2022-08-21T06:48:34;70240.81;;;18.13;86.91
3844;BME280;1937;51.444;6.484;2022-08-21T06:51:02;70237.59;;;18.06;87.89
3844;BME280;1937;51.444;6.484;2022-08-21T06:53:31;70227.75;;;18.26;86.43
3844;BME280;1937;51.444;6.484;2022-08-21T06:56:00;70117.25;;;18.17;86.66
3844;BME280;1937;51.444;6.484;2022-08-21T06:58:30;70183.03;;;18.24;86.55
3844;BME280;1937;51.444;6.484;2022-08-21T07:00:59;70165.56;;;18.35;85.81
3844;BME280;1937;51.444;6.484;2022-08-21T07:03:32;70123.63;;;18.37;85.49
3844;BME280;1937;51.444;6.484;2022-08-21T07:06:03;70230.16;;;18.61;85.59
3844;BME280;1937;51.444;6.484;2022-08-21T07:08:31;70196.78;;;18.75;84.78
3844;BME280;1937;51.444;6.484;2022-08-21T07:11:02;70196.94;;;18.86;83.87
3844;BME280;1937;51.444;6.484;2022-08-21T07:13:32;70202.28;;;19.10;83.20
3844;BME280;1937;51.444;6.484;2022-08-21T07:16:01;70105.69;;;19.04;82.16
3844;BME280;1937;51.444;6.484;2022-08-21T07:18:30;70059.31;;;19.04;82.71
3844;BME280;1937;51.444;6.484;2022-08-21T07:20:59;70078.88;;;19.23;81.75
3844;BME280;1937;51.444;6.484;2022-08-21T07:23:30;70069.22;;;19.28;81.50
3844;BME280;1937;51.444;6.484;2022-08-21T07:26:00;69941.66;;;19.00;81.27
3844;BME280;1937;51.444;6.484;2022-08-21T07:28:29;69903.78;;;18.88;81.83
3844;BME280;1937;51.444;6.484;2022-08-21T07:31:00;69949.00;;;19.10;81.23
3844;BME280;1937;51.444;6.484;2022-08-21T07:33:33;69982.13;;;19.12;81.67
3844;BME280;1937;51.444;6.484;2022-08-21T07:36:02;70025.19;;;19.31;81.48
3844;BME280;1937;51.444;6.484;2022-08-21T07:38:31;70008.88;;;19.37;80.37
3844;BME280;1937;51.444;6.484;2022-08-21T07:41:01;69990.63;;;19.61;79.62
3844;BME280;1937;51.444;6.484;2022-08-21T07:43:30;70158.50;;;20.17;77.83
3844;BME280;1937;51.444;6.484;2022-08-21T07:46:00;70063.75;;;20.16;78.18
3844;BME280;1937;51.444;6.484;2022-08-21T07:48:28;70118.16;;;20.58;75.65
3844;BME280;1937;51.444;6.484;2022-08-21T07:50:57;70264.94;;;21.35;73.51
3844;BME280;1937;51.444;6.484;2022-08-21T07:53:26;70184.63;;;21.62;70.78
3844;BME280;1937;51.444;6.484;2022-08-21T07:55:54;70206.75;;;22.05;69.55
3844;BME280;1937;51.444;6.484;2022-08-21T07:58:25;70122.19;;;21.87;70.11
3844;BME280;1937;51.444;6.484;2022-08-21T08:00:53;70000.25;;;21.64;70.43
3844;BME280;1937;51.444;6.484;2022-08-21T08:03:23;70020.72;;;21.86;68.44
3844;BME280;1937;51.444;6.484;2022-08-21T08:05:51;70098.31;;;22.25;67.65
3844;BME280;1937;51.444;6.484;2022-08-21T08:08:20;70135.06;;;22.54;67.07
3844;BME280;1937;51.444;6.484;2022-08-21T08:10:48;70163.03;;;22.62;66.98
3844;BME280;1937;51.444;6.484;2022-08-21T08:13:17;70219.59;;;22.78;66.57
3844;BME280;1937;51.444;6.484;2022-08-21T08:15:45;70254.25;;;23.14;65.46
3844;BME280;1937;51.444;6.484;2022-08-21T08:18:13;70370.00;;;23.72;62.82
3844;BME280;1937;51.444;6.484;2022-08-21T08:20:43;70430.56;;;24.12;62.02
3844;BME280;1937;51.444;6.484;2022-08-21T08:23:12;70552.34;;;24.41;61.72
3844;BME280;1937;51.444;6.484;2022-08-21T08:25:41;70462.41;;;24.39;61.90
3844;BME280;1937;51.444;6.484;2022-08-21T08:28:11;70483.94;;;24.64;60.42
3844;BME280;1937;51.444;6.484;2022-08-21T08:30:39;70643.59;;;25.03;60.08
3844;BME280;1937;51.444;6.484;2022-08-21T08:33:07;70618.66;;;25.02;60.52
3844;BME280;1937;51.444;6.484;2022-08-21T08:35:36;70653.56;;;25.31;58.96
3844;BME280;1937;51.444;6.484;2022-08-21T08:38:06;70441.19;;;24.74;60.69
3844;BME280;1937;51.444;6.484;2022-08-21T08:40:41;70280.44;;;24.30;61.60
3844;BME280;1937;51.444;6.484;2022-08-21T08:43:13;70134.53;;;23.66;63.23
3844;BME280;1937;51.444;6.484;2022-08-21T08:45:46;70047.94;;;23.42;63.51
3844;BME280;1937;51.444;6.484;2022-08-21T08:48:34;70021.41;;;23.33;64.00
3844;BME280;1937;51.444;6.484;2022-08-21T08:51:08;70103.56;;;23.67;63.91
3844;BME280;1937;51.444;6.484;2022-08-21T08:53:47;70199.13;;;23.99;63.09
3844;BME280;1937;51.444;6.484;2022-08-21T08:56:21;70281.09;;;24.13;63.35
3844;BME280;1937;51.444;6.484;2022-08-21T08:58:51;70597.66;;;25.24;60.58
3844;BME280;1937;51.444;6.484;2022-08-21T09:01:21;70693.97;;;25.58;58.74
3844;BME280;1937;51.444;6.484;2022-08-21T09:03:51;70765.06;;;26.00;57.15
3844;BME280;1937;51.444;6.484;2022-08-21T09:06:28;70750.06;;;25.99;57.61
3844;BME280;1937;51.444;6.484;2022-08-21T09:09:11;70512.31;;;25.32;57.71
3844;BME280;1937;51.444;6.484;2022-08-21T09:11:48;70695.19;;;25.88;56.60
3844;BME280;1937;51.444;6.484;2022-08-21T09:14:26;70474.09;;;25.38;58.76
3844;BME280;1937;51.444;6.484;2022-08-21T09:17:04;70705.16;;;25.99;56.50
3844;BME280;1937;51.444;6.484;2022-08-21T09:19:56;70515.22;;;25.52;57.48
3844;BME280;1937;51.444;6.484;2022-08-21T09:22:31;70787.22;;;26.32;56.01
3844;BME280;1937;51.444;6.484;2022-08-21T09:25:10;70755.97;;;26.39;53.85
3844;BME280;1937;51.444;6.484;2022-08-21T09:27:41;70875.66;;;26.73;54.52
3844;BME280;1937;51.444;6.484;2022-08-21T09:30:11;70895.31;;;26.92;53.03
3844;BME280;1937;51.444;6.484;2022-08-21T09:32:40;71023.59;;;27.33;52.75
3844;BME280;1937;51.444;6.484;2022-08-21T09:35:12;71011.28;;;27.25;53.31
3844;BME280;1937;51.444;6.484;2022-08-21T09:37:52;70718.69;;;26.59;55.23
3844;BME280;1937;51.444;6.484;2022-08-21T09:40:39;70968.97;;;27.36;51.10
3844;BME280;1937;51.444;6.484;2022-08-21T09:43:19;70900.38;;;27.34;51.61
3844;BME280;1937;51.444;6.484;2022-08-21T09:46:04;70891.38;;;27.26;51.42
3844;BME280;1937;51.444;6.484;2022-08-21T09:48:39;70936.38;;;27.38;52.31
3844;BME280;1937;51.444;6.484;2022-08-21T09:51:11;71079.31;;;27.84;52.34
3844;BME280;1937;51.444;6.484;2022-08-21T09:53:46;71182.31;;;28.22;49.87
3844;BME280;1937;51.444;6.484;2022-08-21T09:56:25;71084.91;;;28.04;49.14
3844;BME280;1937;51.444;6.484;2022-08-21T09:59:18;71366.22;;;28.78;48.76
3844;BME280;1937;51.444;6.484;2022-08-21T10:01:50;71460.88;;;29.15;47.57
3844;BME280;1937;51.444;6.484;2022-08-21T10:04:22;71168.47;;;28.50;47.31
3844;BME280;1937;51.444;6.484;2022-08-21T10:06:50;71335.78;;;28.95;47.59
3844;BME280;1937;51.444;6.484;2022-08-21T10:09:20;71227.44;;;28.79;48.01
3844;BME280;1937;51.444;6.484;2022-08-21T10:11:56;71242.28;;;28.94;46.10
3844;BME280;1937;51.444;6.484;2022-08-21T10:14:37;71103.13;;;28.53;48.31
3844;BME280;1937;51.444;6.484;2022-08-21T10:17:14;71107.50;;;28.61;47.14
3844;BME280;1937;51.444;6.484;2022-08-21T10:19:51;71369.56;;;29.18;46.75
3844;BME280;1937;51.444;6.484;2022-08-21T10:22:32;71145.13;;;28.68;46.53
3844;BME280;1937;51.444;6.484;2022-08-21T10:25:11;71161.56;;;28.75;46.60
3844;BME280;1937;51.444;6.484;2022-08-21T10:27:48;71178.50;;;28.89;45.79
3844;BME280;1937;51.444;6.484;2022-08-21T10:30:25;71139.41;;;28.83;46.20
3844;BME280;1937;51.444;6.484;2022-08-21T10:33:04;70802.41;;;27.85;49.60
3844;BME280;1937;51.444;6.484;2022-08-21T10:35:42;70864.63;;;28.02;46.78
3844;BME280;1937;51.444;6.484;2022-08-21T10:41:22;71006.34;;;28.36;47.85
3844;BME280;1937;51.444;6.484;2022-08-21T10:44:03;70783.13;;;27.80;48.84
3844;BME280;1937;51.444;6.484;2022-08-21T10:46:41;70982.38;;;28.43;47.56
3844;BME280;1937;51.444;6.484;2022-08-21T10:49:19;70702.16;;;27.54;49.36
3844;BME280;1937;51.444;6.484;2022-08-21T10:51:55;70890.28;;;28.03;48.42
3844;BME280;1937;51.444;6.484;2022-08-21T10:54:32;70813.59;;;27.86;48.46
3844;BME280;1937;51.444;6.484;2022-08-21T10:57:09;70878.50;;;28.02;48.04
3844;BME280;1937;51.444;6.484;2022-08-21T10:59:46;71042.50;;;28.44;48.09
3844;BME280;1937;51.444;6.484;2022-08-21T11:02:20;71195.63;;;28.90;46.96
3844;BME280;1937;51.444;6.484;2022-08-21T11:04:56;70810.81;;;27.92;49.97
3844;BME280;1937;51.444;6.484;2022-08-21T11:07:30;70885.13;;;28.08;49.65
3844;BME280;1937;51.444;6.484;2022-08-21T11:10:05;71205.25;;;28.87;48.48
3844;BME280;1937;51.444;6.484;2022-08-21T11:12:44;71036.25;;;28.64;47.42
3844;BME280;1937;51.444;6.484;2022-08-21T11:15:24;71152.19;;;28.87;46.44
3844;BME280;1937;51.444;6.484;2022-08-21T11:18:00;71084.25;;;28.73;47.50
3844;BME280;1937;51.444;6.484;2022-08-21T11:20:36;71141.34;;;28.89;46.50
3844;BME280;1937;51.444;6.484;2022-08-21T11:23:11;71413.84;;;29.66;45.69
3844;BME280;1937;51.444;6.484;2022-08-21T11:25:47;71605.81;;;30.14;44.60
3844;BME280;1937;51.444;6.484;2022-08-21T11:28:20;71251.88;;;29.38;45.18
3844;BME280;1937;51.444;6.484;2022-08-21T11:30:59;71144.03;;;29.12;45.95
3844;BME280;1937;51.444;6.484;2022-08-21T11:33:47;70991.28;;;28.57;46.96
3844;BME280;1937;51.444;6.484;2022-08-21T11:36:26;71150.31;;;29.04;46.86
3844;BME280;1937;51.444;6.484;2022-08-21T11:39:02;71158.63;;;29.06;46.39
3844;BME280;1937;51.444;6.484;2022-08-21T11:41:40;71293.63;;;29.33;46.15
3844;BME280;1937;51.444;6.484;2022-08-21T11:44:18;71274.41;;;29.32;46.83
3844;BME280;1937;51.444;6.484;2022-08-21T11:47:01;71096.00;;;28.80;48.01
3844;BME280;1937;51.444;6.484;2022-08-21T11:49:47;70779.25;;;28.01;49.23
3844;BME280;1937;51.444;6.484;2022-08-21T11:52:20;71001.41;;;28.50;48.00
3844;BME280;1937;51.444;6.484;2022-08-21T11:54:56;70875.00;;;28.26;48.65
3844;BME280;1937;51.444;6.484;2022-08-21T11:57:29;71053.50;;;28.69;47.33
3844;BME280;1937;51.444;6.484;2022-08-21T12:00:03;70691.91;;;27.68;48.57
3844;BME280;1937;51.444;6.484;2022-08-21T12:02:38;70597.47;;;27.55;47.52
3844;BME280;1937;51.444;6.484;2022-08-21T12:05:11;70653.97;;;27.69;48.52
3844;BME280;1937;51.444;6.484;2022-08-21T12:07:42;70657.22;;;27.70;50.07
3844;BME280;1937;51.444;6.484;2022-08-21T12:10:13;70942.47;;;28.49;47.15
3844;BME280;1937;51.444;6.484;2022-08-21T12:12:44;71075.59;;;28.79;47.48
3844;BME280;1937;51.444;6.484;2022-08-21T12:15:29;71233.34;;;29.20;46.90
3844;BME280;1937;51.444;6.484;2022-08-21T12:18:02;71390.28;;;29.69;45.52
3844;BME280;1937;51.444;6.484;2022-08-21T12:20:36;71051.63;;;28.85;45.83
3844;BME280;1937;51.444;6.484;2022-08-21T12:23:15;70763.00;;;27.99;48.12
3844;BME280;1937;51.444;6.484;2022-08-21T12:25:46;70917.53;;;28.42;47.49
3844;BME280;1937;51.444;6.484;2022-08-21T12:28:22;70928.25;;;28.46;47.64
3844;BME280;1937;51.444;6.484;2022-08-21T12:30:51;70655.59;;;27.62;49.74
3844;BME280;1937;51.444;6.484;2022-08-21T12:33:26;70719.31;;;27.82;48.23
3844;BME280;1937;51.444;6.484;2022-08-21T12:36:04;70721.94;;;27.93;47.88
3844;BME280;1937;51.444;6.484;2022-08-21T12:38:42;70373.44;;;26.78;51.17
3844;BME280;1937;51.444;6.484;2022-08-21T12:41:19;70511.78;;;27.25;49.08
3844;BME280;1937;51.444;6.484;2022-08-21T12:43:53;70816.72;;;28.15;48.01
3844;BME280;1937;51.444;6.484;2022-08-21T12:46:31;70926.94;;;28.52;46.95
3844;BME280;1937;51.444;6.484;2022-08-21T12:49:06;70866.06;;;28.45;45.59
3844;BME280;1937;51.444;6.484;2022-08-21T12:51:42;71067.16;;;28.94;45.08
3844;BME280;1937;51.444;6.484;2022-08-21T12:54:22;71337.75;;;29.58;45.07
3844;BME280;1937;51.444;6.484;2022-08-21T12:56:56;71566.66;;;30.36;42.69
3844;BME280;1937;51.444;6.484;2022-08-21T12:59:26;71746.63;;;30.80;42.60
3844;BME280;1937;51.444;6.484;2022-08-21T13:01:56;71119.31;;;29.13;44.83
3844;BME280;1937;51.444;6.484;2022-08-21T13:04:39;70834.41;;;28.39;46.15
3844;BME280;1937;51.444;6.484;2022-08-21T13:07:10;71155.88;;;29.24;44.74
3844;BME280;1937;51.444;6.484;2022-08-21T13:09:44;71422.22;;;29.98;43.86
3844;BME280;1937;51.444;6.484;2022-08-21T13:12:16;71393.81;;;29.96;43.41
3844;BME280;1937;51.444;6.484;2022-08-21T13:14:46;71368.38;;;29.86;44.05
3844;BME280;1937;51.444;6.484;2022-08-21T13:17:20;71395.72;;;29.91;43.95
3844;BME280;1937;51.444;6.484;2022-08-21T13:19:57;71371.06;;;29.86;44.39
3844;BME280;1937;51.444;6.484;2022-08-21T13:22:29;71313.53;;;29.78;43.96
3844;BME280;1937;51.444;6.484;2022-08-21T13:25:24;71228.59;;;29.49;46.65
3844;BME280;1937;51.444;6.484;2022-08-21T13:28:04;71343.25;;;29.85;43.55
3844;BME280;1937;51.444;6.484;2022-08-21T13:30:34;71268.31;;;29.56;43.93
3844;BME280;1937;51.444;6.484;2022-08-21T13:33:07;71117.63;;;29.27;44.42
3844;BME280;1937;51.444;6.484;2022-08-21T13:35:49;70930.78;;;28.53;45.13
3844;BME280;1937;51.444;6.484;2022-08-21T13:38:22;70704.34;;;28.07;46.19
3844;BME280;1937;51.444;6.484;2022-08-21T13:40:55;70748.63;;;28.25;46.13
3844;BME280;1937;51.444;6.484;2022-08-21T13:43:31;70773.19;;;28.30;47.58
3844;BME280;1937;51.444;6.484;2022-08-21T13:46:02;70739.72;;;28.22;47.71
3844;BME280;1937;51.444;6.484;2022-08-21T13:48:35;70808.50;;;28.28;46.18